モスクワ/シェレメーチエヴォ の空港の天気 - METARとTAF

シェレメーチエヴォ国際空港(モスクワ) ( UUEE / SVO ) - ロシア モスクワ
飛行場実況気象(Metar)
観測時間05/23 11:30 MSK (05/23 08:30 UTC)
風向・風速南西 3m/s
視程10km以上
天気現象
全天の8割程度の雲 雲底高度 1160m
気温21℃
湿度56%
気圧1023hPa
METARUUEE 230830Z 23003MPS 190V300 9999 BKN038 21/12 Q1023 R24L/CLRD62 NOSIG
過去の天気等 Google飛行場航空写真 Wunderground天気予報

過去48時間のMETAR

飛行場予報(TAF)
発表時間: 5/23 10:51 MSK (5/23 07:51 UTC)
予報対象時間: 23日12時 MSK ~ 24日12時 MSK
風向・風速西南西 5m/s
視程10km以上
全天の4割程度の雲 雲底高度 910m
23日18時 MSK ~ 23日20時 MSK に徐々に
風向・風速不定 1m/s
23日22時 MSK ~ 23日24時 MSK に徐々に
風向・風速北北東 5m/s
TAF UUEE 230751Z 2309/2409 24005MPS 9999 SCT030 TX22/2312Z TN10/2402Z
BECMG 2315/2317 VRB01MPS
BECMG 2319/2321 02005MPS